sensor_id;sensor_type;location;lat;lon;timestamp;P1;durP1;ratioP1;P2;durP2;ratioP2
61091;SDS011;46975;51.898;11.444;2022-08-03T00:01:03;3.83;;;2.38;;
61091;SDS011;46975;51.898;11.444;2022-08-03T00:03:29;5.32;;;2.50;;
61091;SDS011;46975;51.898;11.444;2022-08-03T00:05:54;2.35;;;2.05;;
61091;SDS011;46975;51.898;11.444;2022-08-03T00:08:20;11.52;;;2.65;;
61091;SDS011;46975;51.898;11.444;2022-08-03T00:10:46;5.65;;;2.35;;
61091;SDS011;46975;51.898;11.444;2022-08-03T00:13:11;5.68;;;2.72;;
61091;SDS011;46975;51.898;11.444;2022-08-03T00:15:40;6.18;;;2.10;;
61091;SDS011;46975;51.898;11.444;2022-08-03T00:18:06;3.42;;;1.90;;
61091;SDS011;46975;51.898;11.444;2022-08-03T00:20:33;3.05;;;2.22;;
61091;SDS011;46975;51.898;11.444;2022-08-03T00:22:59;7.30;;;2.20;;
61091;SDS011;46975;51.898;11.444;2022-08-03T00:25:25;2.55;;;2.35;;
61091;SDS011;46975;51.898;11.444;2022-08-03T00:27:51;7.32;;;2.40;;
61091;SDS011;46975;51.898;11.444;2022-08-03T00:30:16;2.30;;;2.10;;
61091;SDS011;46975;51.898;11.444;2022-08-03T00:32:42;5.28;;;2.42;;
61091;SDS011;46975;51.898;11.444;2022-08-03T00:35:08;3.53;;;2.13;;
61091;SDS011;46975;51.898;11.444;2022-08-03T00:37:33;5.78;;;2.22;;
61091;SDS011;46975;51.898;11.444;2022-08-03T00:39:59;7.80;;;2.20;;
61091;SDS011;46975;51.898;11.444;2022-08-03T00:42:25;3.47;;;2.15;;
61091;SDS011;46975;51.898;11.444;2022-08-03T00:44:51;3.55;;;2.35;;
61091;SDS011;46975;51.898;11.444;2022-08-03T00:47:16;4.40;;;2.40;;
61091;SDS011;46975;51.898;11.444;2022-08-03T00:49:42;3.50;;;2.50;;
61091;SDS011;46975;51.898;11.444;2022-08-03T00:52:08;3.30;;;2.25;;
61091;SDS011;46975;51.898;11.444;2022-08-03T00:54:36;3.67;;;2.35;;
61091;SDS011;46975;51.898;11.444;2022-08-03T00:57:02;7.10;;;2.25;;
61091;SDS011;46975;51.898;11.444;2022-08-03T00:59:28;4.88;;;2.22;;
61091;SDS011;46975;51.898;11.444;2022-08-03T01:01:54;4.07;;;2.30;;
61091;SDS011;46975;51.898;11.444;2022-08-03T01:04:20;2.60;;;2.40;;
61091;SDS011;46975;51.898;11.444;2022-08-03T01:12:10;9.68;;;2.42;;
61091;SDS011;46975;51.898;11.444;2022-08-03T01:14:45;4.97;;;3.45;;
61091;SDS011;46975;51.898;11.444;2022-08-03T01:17:33;4.35;;;2.80;;
61091;SDS011;46975;51.898;11.444;2022-08-03T01:20:11;5.82;;;3.10;;
61091;SDS011;46975;51.898;11.444;2022-08-03T01:28:21;6.57;;;3.13;;
61091;SDS011;46975;51.898;11.444;2022-08-03T01:31:10;6.80;;;3.45;;
61091;SDS011;46975;51.898;11.444;2022-08-03T01:33:43;7.32;;;3.40;;
61091;SDS011;46975;51.898;11.444;2022-08-03T01:36:15;6.53;;;3.70;;
61091;SDS011;46975;51.898;11.444;2022-08-03T01:38:51;3.20;;;2.90;;
61091;SDS011;46975;51.898;11.444;2022-08-03T01:41:20;4.97;;;3.42;;
61091;SDS011;46975;51.898;11.444;2022-08-03T01:43:50;6.57;;;4.18;;
61091;SDS011;46975;51.898;11.444;2022-08-03T01:46:18;5.03;;;4.50;;
61091;SDS011;46975;51.898;11.444;2022-08-03T01:48:45;5.30;;;4.00;;
61091;SDS011;46975;51.898;11.444;2022-08-03T01:51:12;5.70;;;4.28;;
61091;SDS011;46975;51.898;11.444;2022-08-03T01:53:40;11.83;;;4.90;;
61091;SDS011;46975;51.898;11.444;2022-08-03T01:56:09;6.25;;;4.65;;
61091;SDS011;46975;51.898;11.444;2022-08-03T01:58:36;7.03;;;4.35;;
61091;SDS011;46975;51.898;11.444;2022-08-03T02:01:04;11.80;;;5.50;;
61091;SDS011;46975;51.898;11.444;2022-08-03T02:03:33;13.18;;;4.50;;
61091;SDS011;46975;51.898;11.444;2022-08-03T02:06:02;4.78;;;4.32;;
61091;SDS011;46975;51.898;11.444;2022-08-03T02:08:29;6.32;;;4.30;;
61091;SDS011;46975;51.898;11.444;2022-08-03T02:10:56;3.33;;;2.97;;
61091;SDS011;46975;51.898;11.444;2022-08-03T02:13:23;5.72;;;3.00;;
61091;SDS011;46975;51.898;11.444;2022-08-03T02:15:50;2.17;;;1.75;;
61091;SDS011;46975;51.898;11.444;2022-08-03T02:18:17;2.42;;;2.13;;
61091;SDS011;46975;51.898;11.444;2022-08-03T02:20:44;2.50;;;1.98;;
61091;SDS011;46975;51.898;11.444;2022-08-03T02:23:11;4.40;;;2.05;;
61091;SDS011;46975;51.898;11.444;2022-08-03T02:25:52;2.85;;;2.40;;
61091;SDS011;46975;51.898;11.444;2022-08-03T02:28:25;2.40;;;1.80;;
61091;SDS011;46975;51.898;11.444;2022-08-03T02:30:56;3.25;;;2.80;;
61091;SDS011;46975;51.898;11.444;2022-08-03T02:33:25;1.92;;;1.83;;
61091;SDS011;46975;51.898;11.444;2022-08-03T02:35:56;5.68;;;1.90;;
61091;SDS011;46975;51.898;11.444;2022-08-03T02:38:25;3.53;;;1.80;;
61091;SDS011;46975;51.898;11.444;2022-08-03T02:40:55;3.83;;;2.38;;
61091;SDS011;46975;51.898;11.444;2022-08-03T02:43:22;4.07;;;1.98;;
61091;SDS011;46975;51.898;11.444;2022-08-03T02:45:50;2.83;;;2.08;;
61091;SDS011;46975;51.898;11.444;2022-08-03T02:48:19;6.38;;;2.05;;
61091;SDS011;46975;51.898;11.444;2022-08-03T02:50:48;2.58;;;1.60;;
61091;SDS011;46975;51.898;11.444;2022-08-03T02:53:17;2.08;;;1.85;;
61091;SDS011;46975;51.898;11.444;2022-08-03T02:55:45;2.33;;;2.13;;
61091;SDS011;46975;51.898;11.444;2022-08-03T02:58:12;2.88;;;1.77;;
61091;SDS011;46975;51.898;11.444;2022-08-03T03:00:38;2.83;;;1.88;;
61091;SDS011;46975;51.898;11.444;2022-08-03T03:03:05;2.30;;;2.10;;
61091;SDS011;46975;51.898;11.444;2022-08-03T03:05:31;2.00;;;1.80;;
61091;SDS011;46975;51.898;11.444;2022-08-03T03:07:58;2.47;;;2.00;;
61091;SDS011;46975;51.898;11.444;2022-08-03T03:10:24;2.63;;;1.75;;
61091;SDS011;46975;51.898;11.444;2022-08-03T03:12:52;3.92;;;2.30;;
61091;SDS011;46975;51.898;11.444;2022-08-03T03:15:21;3.10;;;1.90;;
61091;SDS011;46975;51.898;11.444;2022-08-03T03:17:48;3.15;;;2.42;;
61091;SDS011;46975;51.898;11.444;2022-08-03T03:20:15;2.15;;;1.95;;
61091;SDS011;46975;51.898;11.444;2022-08-03T03:22:42;3.47;;;1.98;;
61091;SDS011;46975;51.898;11.444;2022-08-03T03:25:09;3.15;;;2.60;;
61091;SDS011;46975;51.898;11.444;2022-08-03T03:27:35;6.07;;;2.22;;
61091;SDS011;46975;51.898;11.444;2022-08-03T03:30:02;3.88;;;2.47;;
61091;SDS011;46975;51.898;11.444;2022-08-03T03:32:28;4.50;;;2.58;;
61091;SDS011;46975;51.898;11.444;2022-08-03T03:34:54;3.83;;;2.40;;
61091;SDS011;46975;51.898;11.444;2022-08-03T03:37:23;3.35;;;2.47;;
61091;SDS011;46975;51.898;11.444;2022-08-03T03:39:49;6.90;;;2.28;;
61091;SDS011;46975;51.898;11.444;2022-08-03T03:42:14;3.28;;;2.45;;
61091;SDS011;46975;51.898;11.444;2022-08-03T03:44:40;6.68;;;2.55;;
61091;SDS011;46975;51.898;11.444;2022-08-03T03:47:05;7.00;;;2.17;;
61091;SDS011;46975;51.898;11.444;2022-08-03T03:49:31;7.13;;;2.83;;
61091;SDS011;46975;51.898;11.444;2022-08-03T03:51:57;4.28;;;2.60;;
61091;SDS011;46975;51.898;11.444;2022-08-03T03:54:23;4.25;;;2.42;;
61091;SDS011;46975;51.898;11.444;2022-08-03T03:56:48;3.92;;;2.60;;
61091;SDS011;46975;51.898;11.444;2022-08-03T03:59:14;12.00;;;4.60;;
61091;SDS011;46975;51.898;11.444;2022-08-03T04:01:39;6.85;;;2.92;;
61091;SDS011;46975;51.898;11.444;2022-08-03T04:04:05;7.93;;;2.90;;
61091;SDS011;46975;51.898;11.444;2022-08-03T04:06:50;5.68;;;2.63;;
61091;SDS011;46975;51.898;11.444;2022-08-03T04:09:34;4.28;;;2.80;;
61091;SDS011;46975;51.898;11.444;2022-08-03T04:12:21;13.43;;;4.32;;
61091;SDS011;46975;51.898;11.444;2022-08-03T04:14:48;8.38;;;3.80;;
61091;SDS011;46975;51.898;11.444;2022-08-03T04:17:15;5.63;;;2.92;;
61091;SDS011;46975;51.898;11.444;2022-08-03T04:19:47;4.10;;;2.63;;
61091;SDS011;46975;51.898;11.444;2022-08-03T04:22:17;6.18;;;2.80;;
61091;SDS011;46975;51.898;11.444;2022-08-03T04:24:50;2.92;;;2.25;;
61091;SDS011;46975;51.898;11.444;2022-08-03T04:27:22;16.92;;;2.70;;
61091;SDS011;46975;51.898;11.444;2022-08-03T04:29:52;5.03;;;2.38;;
61091;SDS011;46975;51.898;11.444;2022-08-03T04:32:19;6.90;;;2.70;;
61091;SDS011;46975;51.898;11.444;2022-08-03T04:34:49;4.35;;;2.97;;
61091;SDS011;46975;51.898;11.444;2022-08-03T04:40:06;4.30;;;3.60;;
61091;SDS011;46975;51.898;11.444;2022-08-03T04:42:34;5.10;;;2.85;;
61091;SDS011;46975;51.898;11.444;2022-08-03T04:45:02;5.57;;;3.03;;
61091;SDS011;46975;51.898;11.444;2022-08-03T04:47:31;3.28;;;2.97;;
61091;SDS011;46975;51.898;11.444;2022-08-03T04:50:01;5.10;;;3.58;;
61091;SDS011;46975;51.898;11.444;2022-08-03T04:52:28;7.95;;;3.50;;
61091;SDS011;46975;51.898;11.444;2022-08-03T04:54:54;4.43;;;2.97;;
61091;SDS011;46975;51.898;11.444;2022-08-03T04:57:21;5.10;;;3.25;;
61091;SDS011;46975;51.898;11.444;2022-08-03T04:59:47;5.32;;;3.25;;
61091;SDS011;46975;51.898;11.444;2022-08-03T05:02:16;7.03;;;3.38;;
61091;SDS011;46975;51.898;11.444;2022-08-03T05:04:42;8.95;;;3.95;;
61091;SDS011;46975;51.898;11.444;2022-08-03T05:07:10;6.37;;;3.50;;
61091;SDS011;46975;51.898;11.444;2022-08-03T05:09:39;10.25;;;4.43;;
61091;SDS011;46975;51.898;11.444;2022-08-03T05:12:05;8.38;;;3.45;;
61091;SDS011;46975;51.898;11.444;2022-08-03T05:14:32;6.60;;;3.00;;
61091;SDS011;46975;51.898;11.444;2022-08-03T05:16:58;4.03;;;3.47;;
61091;SDS011;46975;51.898;11.444;2022-08-03T05:19:24;8.30;;;3.45;;
61091;SDS011;46975;51.898;11.444;2022-08-03T05:21:49;4.75;;;3.67;;
61091;SDS011;46975;51.898;11.444;2022-08-03T05:24:15;5.47;;;3.45;;
61091;SDS011;46975;51.898;11.444;2022-08-03T05:26:40;5.00;;;3.20;;
61091;SDS011;46975;51.898;11.444;2022-08-03T05:29:06;5.43;;;2.67;;
61091;SDS011;46975;51.898;11.444;2022-08-03T05:31:32;2.53;;;2.33;;
61091;SDS011;46975;51.898;11.444;2022-08-03T05:33:58;3.58;;;2.22;;
61091;SDS011;46975;51.898;11.444;2022-08-03T05:36:23;6.25;;;2.97;;
61091;SDS011;46975;51.898;11.444;2022-08-03T05:38:50;3.03;;;2.72;;
61091;SDS011;46975;51.898;11.444;2022-08-03T05:41:15;2.35;;;1.90;;
61091;SDS011;46975;51.898;11.444;2022-08-03T05:43:41;4.78;;;1.73;;
61091;SDS011;46975;51.898;11.444;2022-08-03T05:46:07;3.88;;;2.15;;
61091;SDS011;46975;51.898;11.444;2022-08-03T05:48:32;5.97;;;2.25;;
61091;SDS011;46975;51.898;11.444;2022-08-03T05:50:58;2.50;;;2.22;;
61091;SDS011;46975;51.898;11.444;2022-08-03T05:53:23;3.90;;;1.92;;
61091;SDS011;46975;51.898;11.444;2022-08-03T05:55:50;3.38;;;1.98;;
61091;SDS011;46975;51.898;11.444;2022-08-03T05:58:16;2.72;;;2.17;;
61091;SDS011;46975;51.898;11.444;2022-08-03T06:00:41;4.80;;;2.28;;
61091;SDS011;46975;51.898;11.444;2022-08-03T06:03:07;3.25;;;1.95;;
61091;SDS011;46975;51.898;11.444;2022-08-03T06:05:33;4.25;;;1.90;;
61091;SDS011;46975;51.898;11.444;2022-08-03T06:08:00;8.48;;;2.38;;
61091;SDS011;46975;51.898;11.444;2022-08-03T06:10:27;2.97;;;1.67;;
61091;SDS011;46975;51.898;11.444;2022-08-03T06:12:52;4.18;;;1.90;;
61091;SDS011;46975;51.898;11.444;2022-08-03T06:15:18;4.32;;;1.42;;
61091;SDS011;46975;51.898;11.444;2022-08-03T06:17:47;1.30;;;1.13;;
61091;SDS011;46975;51.898;11.444;2022-08-03T06:20:17;3.58;;;1.20;;
61091;SDS011;46975;51.898;11.444;2022-08-03T06:22:45;1.92;;;1.30;;
61091;SDS011;46975;51.898;11.444;2022-08-03T06:25:11;2.13;;;1.42;;
61091;SDS011;46975;51.898;11.444;2022-08-03T06:27:37;1.65;;;1.27;;
61091;SDS011;46975;51.898;11.444;2022-08-03T06:30:07;2.92;;;1.15;;
61091;SDS011;46975;51.898;11.444;2022-08-03T06:32:34;3.42;;;1.27;;
61091;SDS011;46975;51.898;11.444;2022-08-03T06:35:07;1.33;;;1.25;;
61091;SDS011;46975;51.898;11.444;2022-08-03T06:37:43;1.83;;;1.30;;
61091;SDS011;46975;51.898;11.444;2022-08-03T06:40:11;2.35;;;1.35;;
61091;SDS011;46975;51.898;11.444;2022-08-03T06:42:38;4.25;;;1.52;;
61091;SDS011;46975;51.898;11.444;2022-08-03T06:45:05;1.52;;;1.08;;
61091;SDS011;46975;51.898;11.444;2022-08-03T06:47:32;1.92;;;1.45;;
61091;SDS011;46975;51.898;11.444;2022-08-03T06:49:59;1.85;;;1.02;;
61091;SDS011;46975;51.898;11.444;2022-08-03T06:52:24;2.92;;;1.60;;
61091;SDS011;46975;51.898;11.444;2022-08-03T06:54:50;2.60;;;1.30;;
61091;SDS011;46975;51.898;11.444;2022-08-03T06:57:15;3.05;;;1.20;;
61091;SDS011;46975;51.898;11.444;2022-08-03T06:59:42;2.17;;;1.35;;
61091;SDS011;46975;51.898;11.444;2022-08-03T07:02:08;2.78;;;1.30;;
61091;SDS011;46975;51.898;11.444;2022-08-03T07:04:35;1.58;;;1.48;;
61091;SDS011;46975;51.898;11.444;2022-08-03T07:07:01;2.20;;;1.65;;
61091;SDS011;46975;51.898;11.444;2022-08-03T07:09:26;4.10;;;0.95;;
61091;SDS011;46975;51.898;11.444;2022-08-03T07:11:52;1.58;;;1.23;;
61091;SDS011;46975;51.898;11.444;2022-08-03T07:14:19;1.80;;;1.27;;
61091;SDS011;46975;51.898;11.444;2022-08-03T07:16:45;1.63;;;1.25;;
61091;SDS011;46975;51.898;11.444;2022-08-03T07:19:11;4.70;;;2.08;;
61091;SDS011;46975;51.898;11.444;2022-08-03T07:21:36;2.58;;;1.00;;
61091;SDS011;46975;51.898;11.444;2022-08-03T07:24:02;1.35;;;1.20;;
61091;SDS011;46975;51.898;11.444;2022-08-03T07:26:28;3.72;;;1.70;;
61091;SDS011;46975;51.898;11.444;2022-08-03T07:28:53;2.72;;;1.45;;
61091;SDS011;46975;51.898;11.444;2022-08-03T07:31:19;0.95;;;0.95;;
61091;SDS011;46975;51.898;11.444;2022-08-03T07:33:44;2.47;;;2.03;;
61091;SDS011;46975;51.898;11.444;2022-08-03T07:36:10;3.65;;;1.42;;
61091;SDS011;46975;51.898;11.444;2022-08-03T07:38:36;3.00;;;1.50;;
61091;SDS011;46975;51.898;11.444;2022-08-03T07:41:02;3.42;;;1.40;;
61091;SDS011;46975;51.898;11.444;2022-08-03T07:43:27;3.58;;;1.50;;
61091;SDS011;46975;51.898;11.444;2022-08-03T07:45:53;2.90;;;1.73;;
61091;SDS011;46975;51.898;11.444;2022-08-03T07:48:19;8.38;;;2.35;;
61091;SDS011;46975;51.898;11.444;2022-08-03T07:50:45;1.60;;;1.30;;
61091;SDS011;46975;51.898;11.444;2022-08-03T07:53:11;1.85;;;1.30;;
61091;SDS011;46975;51.898;11.444;2022-08-03T07:55:37;2.92;;;1.50;;
61091;SDS011;46975;51.898;11.444;2022-08-03T07:58:06;2.70;;;1.40;;
61091;SDS011;46975;51.898;11.444;2022-08-03T08:00:36;4.10;;;1.45;;
61091;SDS011;46975;51.898;11.444;2022-08-03T08:03:02;2.17;;;1.40;;
61091;SDS011;46975;51.898;11.444;2022-08-03T08:05:29;4.72;;;1.60;;
61091;SDS011;46975;51.898;11.444;2022-08-03T08:07:55;2.85;;;1.65;;
61091;SDS011;46975;51.898;11.444;2022-08-03T08:10:21;3.80;;;1.40;;
61091;SDS011;46975;51.898;11.444;2022-08-03T08:12:46;2.47;;;1.50;;
61091;SDS011;46975;51.898;11.444;2022-08-03T08:15:12;2.25;;;1.33;;
61091;SDS011;46975;51.898;11.444;2022-08-03T08:17:45;2.38;;;1.83;;
61091;SDS011;46975;51.898;11.444;2022-08-03T08:20:14;2.08;;;1.70;;
61091;SDS011;46975;51.898;11.444;2022-08-03T08:22:41;6.55;;;1.52;;
61091;SDS011;46975;51.898;11.444;2022-08-03T08:25:07;1.35;;;1.25;;
61091;SDS011;46975;51.898;11.444;2022-08-03T08:27:32;3.05;;;1.73;;
61091;SDS011;46975;51.898;11.444;2022-08-03T08:30:04;4.63;;;1.70;;
61091;SDS011;46975;51.898;11.444;2022-08-03T08:32:31;2.42;;;1.52;;
61091;SDS011;46975;51.898;11.444;2022-08-03T08:34:56;3.65;;;1.50;;
61091;SDS011;46975;51.898;11.444;2022-08-03T08:37:22;3.45;;;2.30;;
61091;SDS011;46975;51.898;11.444;2022-08-03T08:39:48;2.60;;;1.60;;
61091;SDS011;46975;51.898;11.444;2022-08-03T08:42:14;1.60;;;1.50;;
61091;SDS011;46975;51.898;11.444;2022-08-03T08:44:39;2.38;;;1.35;;
61091;SDS011;46975;51.898;11.444;2022-08-03T08:47:05;2.35;;;1.60;;
61091;SDS011;46975;51.898;11.444;2022-08-03T08:49:34;3.80;;;1.67;;
61091;SDS011;46975;51.898;11.444;2022-08-03T08:52:02;2.08;;;1.83;;
61091;SDS011;46975;51.898;11.444;2022-08-03T08:54:29;7.43;;;1.95;;
61091;SDS011;46975;51.898;11.444;2022-08-03T08:56:57;4.82;;;1.98;;
61091;SDS011;46975;51.898;11.444;2022-08-03T08:59:27;2.65;;;1.80;;
61091;SDS011;46975;51.898;11.444;2022-08-03T09:01:56;2.65;;;2.28;;
61091;SDS011;46975;51.898;11.444;2022-08-03T09:04:22;9.68;;;2.53;;
61091;SDS011;46975;51.898;11.444;2022-08-03T09:06:49;3.38;;;1.80;;
61091;SDS011;46975;51.898;11.444;2022-08-03T09:09:16;2.03;;;1.83;;
61091;SDS011;46975;51.898;11.444;2022-08-03T09:11:41;1.63;;;1.50;;
61091;SDS011;46975;51.898;11.444;2022-08-03T09:14:08;3.72;;;2.00;;
61091;SDS011;46975;51.898;11.444;2022-08-03T09:16:34;4.47;;;1.98;;
61091;SDS011;46975;51.898;11.444;2022-08-03T09:19:10;2.92;;;1.80;;
61091;SDS011;46975;51.898;11.444;2022-08-03T09:21:38;4.15;;;2.08;;
61091;SDS011;46975;51.898;11.444;2022-08-03T09:24:04;4.95;;;2.03;;
61091;SDS011;46975;51.898;11.444;2022-08-03T09:26:31;3.53;;;1.90;;
61091;SDS011;46975;51.898;11.444;2022-08-03T09:28:59;4.55;;;2.00;;
61091;SDS011;46975;51.898;11.444;2022-08-03T09:31:39;3.10;;;2.15;;
61091;SDS011;46975;51.898;11.444;2022-08-03T09:34:10;1.88;;;1.77;;
61091;SDS011;46975;51.898;11.444;2022-08-03T09:36:39;4.60;;;2.15;;
61091;SDS011;46975;51.898;11.444;2022-08-03T09:39:11;4.57;;;2.00;;
61091;SDS011;46975;51.898;11.444;2022-08-03T09:41:38;2.72;;;2.20;;
61091;SDS011;46975;51.898;11.444;2022-08-03T09:44:09;4.15;;;1.80;;
61091;SDS011;46975;51.898;11.444;2022-08-03T09:46:47;2.25;;;2.05;;
61091;SDS011;46975;51.898;11.444;2022-08-03T09:49:15;3.45;;;2.50;;
61091;SDS011;46975;51.898;11.444;2022-08-03T09:51:42;2.53;;;2.30;;
61091;SDS011;46975;51.898;11.444;2022-08-03T09:54:08;2.85;;;2.22;;
61091;SDS011;46975;51.898;11.444;2022-08-03T09:56:37;2.53;;;2.17;;
61091;SDS011;46975;51.898;11.444;2022-08-03T09:59:03;5.38;;;2.08;;
61091;SDS011;46975;51.898;11.444;2022-08-03T10:01:32;4.47;;;2.35;;
61091;SDS011;46975;51.898;11.444;2022-08-03T10:03:59;5.75;;;2.22;;
61091;SDS011;46975;51.898;11.444;2022-08-03T10:06:24;8.63;;;2.50;;
61091;SDS011;46975;51.898;11.444;2022-08-03T10:09:04;2.63;;;2.42;;
61091;SDS011;46975;51.898;11.444;2022-08-03T10:11:30;2.28;;;2.17;;
61091;SDS011;46975;51.898;11.444;2022-08-03T10:13:58;2.05;;;1.88;;
61091;SDS011;46975;51.898;11.444;2022-08-03T10:16:23;2.05;;;1.90;;
61091;SDS011;46975;51.898;11.444;2022-08-03T10:18:49;2.90;;;2.53;;
61091;SDS011;46975;51.898;11.444;2022-08-03T10:21:16;2.45;;;2.25;;
61091;SDS011;46975;51.898;11.444;2022-08-03T10:23:44;5.82;;;2.20;;
61091;SDS011;46975;51.898;11.444;2022-08-03T10:26:12;3.53;;;2.63;;
61091;SDS011;46975;51.898;11.444;2022-08-03T10:28:41;2.58;;;2.38;;
61091;SDS011;46975;51.898;11.444;2022-08-03T10:31:13;2.33;;;2.22;;
61091;SDS011;46975;51.898;11.444;2022-08-03T10:33:42;2.60;;;2.17;;
61091;SDS011;46975;51.898;11.444;2022-08-03T10:36:11;2.67;;;2.38;;
61091;SDS011;46975;51.898;11.444;2022-08-03T10:38:47;2.97;;;1.90;;
61091;SDS011;46975;51.898;11.444;2022-08-03T10:41:17;2.08;;;1.98;;
61091;SDS011;46975;51.898;11.444;2022-08-03T10:46:38;2.25;;;2.05;;
61091;SDS011;46975;51.898;11.444;2022-08-03T10:49:06;2.38;;;2.17;;
61091;SDS011;46975;51.898;11.444;2022-08-03T10:51:33;1.88;;;1.60;;
61091;SDS011;46975;51.898;11.444;2022-08-03T10:53:59;2.67;;;1.92;;
61091;SDS011;46975;51.898;11.444;2022-08-03T10:59:14;2.33;;;1.90;;
61091;SDS011;46975;51.898;11.444;2022-08-03T11:01:50;3.00;;;2.05;;
61091;SDS011;46975;51.898;11.444;2022-08-03T11:04:18;7.05;;;2.05;;
61091;SDS011;46975;51.898;11.444;2022-08-03T11:06:45;2.30;;;2.13;;
61091;SDS011;46975;51.898;11.444;2022-08-03T11:11:39;2.80;;;2.03;;
61091;SDS011;46975;51.898;11.444;2022-08-03T11:16:39;4.13;;;2.40;;
61091;SDS011;46975;51.898;11.444;2022-08-03T11:19:07;3.20;;;2.50;;
61091;SDS011;46975;51.898;11.444;2022-08-03T11:37:32;2.40;;;2.30;;
61091;SDS011;46975;51.898;11.444;2022-08-03T11:39:57;2.75;;;2.00;;
61091;SDS011;46975;51.898;11.444;2022-08-03T11:44:51;2.20;;;2.10;;
61091;SDS011;46975;51.898;11.444;2022-08-03T11:49:48;5.07;;;2.20;;
61091;SDS011;46975;51.898;11.444;2022-08-03T11:52:15;2.05;;;1.95;;
61091;SDS011;46975;51.898;11.444;2022-08-03T11:54:41;2.20;;;2.10;;
61091;SDS011;46975;51.898;11.444;2022-08-03T11:57:08;2.78;;;2.28;;
61091;SDS011;46975;51.898;11.444;2022-08-03T11:59:34;3.55;;;2.10;;
61091;SDS011;46975;51.898;11.444;2022-08-03T12:02:05;3.72;;;2.25;;
61091;SDS011;46975;51.898;11.444;2022-08-03T12:04:54;1.80;;;1.70;;
61091;SDS011;46975;51.898;11.444;2022-08-03T12:07:27;5.38;;;1.95;;
61091;SDS011;46975;51.898;11.444;2022-08-03T12:10:07;3.03;;;1.92;;
61091;SDS011;46975;51.898;11.444;2022-08-03T12:12:34;5.53;;;1.70;;
61091;SDS011;46975;51.898;11.444;2022-08-03T12:15:01;1.80;;;1.70;;
61091;SDS011;46975;51.898;11.444;2022-08-03T12:17:37;1.90;;;1.80;;
61091;SDS011;46975;51.898;11.444;2022-08-03T12:20:05;2.28;;;2.08;;
61091;SDS011;46975;51.898;11.444;2022-08-03T12:24:59;1.98;;;1.80;;
61091;SDS011;46975;51.898;11.444;2022-08-03T12:27:25;1.80;;;1.67;;
61091;SDS011;46975;51.898;11.444;2022-08-03T12:29:53;2.22;;;2.13;;
61091;SDS011;46975;51.898;11.444;2022-08-03T12:32:21;2.67;;;1.67;;
61091;SDS011;46975;51.898;11.444;2022-08-03T12:34:47;2.58;;;1.58;;
61091;SDS011;46975;51.898;11.444;2022-08-03T12:37:17;1.90;;;1.80;;
61091;SDS011;46975;51.898;11.444;2022-08-03T12:39:48;2.05;;;1.73;;
61091;SDS011;46975;51.898;11.444;2022-08-03T12:42:15;4.93;;;2.35;;
61091;SDS011;46975;51.898;11.444;2022-08-03T12:44:40;2.33;;;1.65;;
61091;SDS011;46975;51.898;11.444;2022-08-03T12:47:06;1.63;;;1.52;;
61091;SDS011;46975;51.898;11.444;2022-08-03T12:52:14;2.25;;;1.90;;
61091;SDS011;46975;51.898;11.444;2022-08-03T12:54:41;2.53;;;2.35;;
61091;SDS011;46975;51.898;11.444;2022-08-03T12:57:08;1.60;;;1.50;;
61091;SDS011;46975;51.898;11.444;2022-08-03T13:02:02;3.10;;;2.03;;
61091;SDS011;46975;51.898;11.444;2022-08-03T13:04:30;2.20;;;1.63;;
61091;SDS011;46975;51.898;11.444;2022-08-03T13:07:03;1.75;;;1.65;;
61091;SDS011;46975;51.898;11.444;2022-08-03T13:09:39;1.80;;;1.70;;
61091;SDS011;46975;51.898;11.444;2022-08-03T13:12:06;2.67;;;2.47;;
61091;SDS011;46975;51.898;11.444;2022-08-03T13:14:33;4.22;;;1.90;;
61091;SDS011;46975;51.898;11.444;2022-08-03T13:16:59;1.92;;;1.75;;
61091;SDS011;46975;51.898;11.444;2022-08-03T13:19:25;2.97;;;2.10;;
61091;SDS011;46975;51.898;11.444;2022-08-03T13:21:50;2.30;;;1.85;;
61091;SDS011;46975;51.898;11.444;2022-08-03T13:24:16;3.60;;;2.10;;
61091;SDS011;46975;51.898;11.444;2022-08-03T13:26:43;2.38;;;2.17;;
61091;SDS011;46975;51.898;11.444;2022-08-03T13:29:09;4.13;;;3.00;;
61091;SDS011;46975;51.898;11.444;2022-08-03T13:31:34;2.03;;;1.90;;
61091;SDS011;46975;51.898;11.444;2022-08-03T13:34:00;1.90;;;1.80;;
61091;SDS011;46975;51.898;11.444;2022-08-03T13:36:26;2.03;;;1.80;;
61091;SDS011;46975;51.898;11.444;2022-08-03T13:38:51;2.40;;;2.17;;
61091;SDS011;46975;51.898;11.444;2022-08-03T13:41:17;4.95;;;2.25;;
61091;SDS011;46975;51.898;11.444;2022-08-03T13:43:43;2.25;;;2.05;;
61091;SDS011;46975;51.898;11.444;2022-08-03T13:46:08;2.35;;;1.70;;
61091;SDS011;46975;51.898;11.444;2022-08-03T13:48:34;3.55;;;2.28;;
61091;SDS011;46975;51.898;11.444;2022-08-03T13:50:59;2.42;;;2.00;;
61091;SDS011;46975;51.898;11.444;2022-08-03T13:53:25;2.63;;;2.22;;
61091;SDS011;46975;51.898;11.444;2022-08-03T13:55:50;2.10;;;2.00;;
61091;SDS011;46975;51.898;11.444;2022-08-03T13:58:16;4.97;;;2.40;;
61091;SDS011;46975;51.898;11.444;2022-08-03T14:00:42;3.65;;;1.95;;
61091;SDS011;46975;51.898;11.444;2022-08-03T14:03:07;2.20;;;2.08;;
61091;SDS011;46975;51.898;11.444;2022-08-03T14:05:33;2.20;;;1.95;;
61091;SDS011;46975;51.898;11.444;2022-08-03T14:08:00;2.15;;;2.05;;
61091;SDS011;46975;51.898;11.444;2022-08-03T14:10:26;1.63;;;1.52;;
61091;SDS011;46975;51.898;11.444;2022-08-03T14:12:51;2.00;;;1.88;;
61091;SDS011;46975;51.898;11.444;2022-08-03T14:15:17;2.45;;;1.73;;
61091;SDS011;46975;51.898;11.444;2022-08-03T14:17:43;2.38;;;1.90;;
61091;SDS011;46975;51.898;11.444;2022-08-03T14:20:09;2.47;;;1.38;;
61091;SDS011;46975;51.898;11.444;2022-08-03T14:22:36;2.17;;;1.98;;
61091;SDS011;46975;51.898;11.444;2022-08-03T14:25:02;1.88;;;1.67;;
61091;SDS011;46975;51.898;11.444;2022-08-03T14:27:28;5.47;;;2.00;;
61091;SDS011;46975;51.898;11.444;2022-08-03T14:29:54;6.25;;;1.67;;
61091;SDS011;46975;51.898;11.444;2022-08-03T14:32:23;2.47;;;1.80;;
61091;SDS011;46975;51.898;11.444;2022-08-03T14:34:51;2.15;;;1.70;;
61091;SDS011;46975;51.898;11.444;2022-08-03T14:37:17;2.83;;;1.60;;
61091;SDS011;46975;51.898;11.444;2022-08-03T14:39:42;2.00;;;1.75;;
61091;SDS011;46975;51.898;11.444;2022-08-03T14:42:08;2.15;;;1.85;;
61091;SDS011;46975;51.898;11.444;2022-08-03T14:44:34;3.33;;;1.65;;
61091;SDS011;46975;51.898;11.444;2022-08-03T14:46:59;2.25;;;1.50;;
61091;SDS011;46975;51.898;11.444;2022-08-03T14:49:25;1.75;;;1.50;;
61091;SDS011;46975;51.898;11.444;2022-08-03T14:51:51;3.25;;;1.88;;
61091;SDS011;46975;51.898;11.444;2022-08-03T14:54:16;1.60;;;1.50;;
61091;SDS011;46975;51.898;11.444;2022-08-03T14:56:42;2.03;;;1.85;;
61091;SDS011;46975;51.898;11.444;2022-08-03T14:59:08;3.58;;;1.92;;
61091;SDS011;46975;51.898;11.444;2022-08-03T15:01:34;1.83;;;1.73;;
61091;SDS011;46975;51.898;11.444;2022-08-03T15:04:00;2.00;;;1.80;;
61091;SDS011;46975;51.898;11.444;2022-08-03T15:06:25;2.35;;;1.73;;
61091;SDS011;46975;51.898;11.444;2022-08-03T15:08:51;2.38;;;1.80;;
61091;SDS011;46975;51.898;11.444;2022-08-03T15:11:18;5.15;;;1.98;;
61091;SDS011;46975;51.898;11.444;2022-08-03T15:13:43;3.22;;;1.60;;
61091;SDS011;46975;51.898;11.444;2022-08-03T15:16:09;2.40;;;1.60;;
61091;SDS011;46975;51.898;11.444;2022-08-03T15:18:35;3.15;;;1.75;;
61091;SDS011;46975;51.898;11.444;2022-08-03T15:21:00;1.67;;;1.58;;
61091;SDS011;46975;51.898;11.444;2022-08-03T15:23:26;1.73;;;1.63;;
61091;SDS011;46975;51.898;11.444;2022-08-03T15:25:52;2.10;;;1.50;;
61091;SDS011;46975;51.898;11.444;2022-08-03T15:28:18;2.92;;;1.70;;